createdAt,value
2023-01-22T00:01:41.192Z,32.00
2023-01-22T00:14:33.150Z,24.67
2023-01-22T00:17:00.427Z,26.00
2023-01-22T00:19:27.448Z,26.33
2023-01-22T00:21:54.568Z,22.67
2023-01-22T00:24:21.349Z,22.33
2023-01-22T00:26:48.108Z,24.67
2023-01-22T00:29:15.099Z,24.00
2023-01-22T00:31:43.431Z,17.33
2023-01-22T00:34:10.580Z,22.33
2023-01-22T00:36:37.704Z,27.67
2023-01-22T00:39:04.795Z,21.67
2023-01-22T00:41:37.094Z,23.33
2023-01-22T00:44:04.507Z,24.00
2023-01-22T00:46:31.317Z,22.00
2023-01-22T00:49:00.091Z,25.67
2023-01-22T00:51:26.938Z,22.67
2023-01-22T00:53:54.040Z,22.00
2023-01-22T00:56:21.012Z,23.00
2023-01-22T00:58:47.947Z,21.67
2023-01-22T01:01:20.668Z,25.00
2023-01-22T01:03:47.503Z,19.00
2023-01-22T01:06:18.977Z,21.33
2023-01-22T01:08:48.208Z,23.67
2023-01-22T01:11:18.853Z,22.67
2023-01-22T01:13:45.784Z,20.00
2023-01-22T01:16:16.744Z,24.00
2023-01-22T01:18:45.876Z,20.00
2023-01-22T01:21:13.139Z,20.67
2023-01-22T01:23:42.403Z,19.67
2023-01-22T01:26:13.537Z,19.33
2023-01-22T01:28:42.578Z,22.00
2023-01-22T01:31:13.561Z,22.67
2023-01-22T01:33:41.422Z,22.00
2023-01-22T01:36:12.058Z,18.00
2023-01-22T01:38:40.012Z,24.33
2023-01-22T01:41:11.970Z,16.33
2023-01-22T01:43:38.899Z,22.00
2023-01-22T01:46:21.408Z,19.33
2023-01-22T01:48:52.986Z,20.00
2023-01-22T01:51:28.901Z,15.67
2023-01-22T01:53:57.403Z,25.00
2023-01-22T01:56:30.316Z,24.00
2023-01-22T01:59:03.774Z,34.00
2023-01-22T02:01:32.653Z,46.00
2023-01-22T02:04:01.225Z,47.00
2023-01-22T02:06:28.262Z,44.33
2023-01-22T02:08:56.882Z,39.00
2023-01-22T02:11:27.007Z,35.67
2023-01-22T02:14:02.659Z,36.33
2023-01-22T02:16:29.940Z,37.33
2023-01-22T02:18:56.833Z,39.00
2023-01-22T02:21:32.374Z,38.67
2023-01-22T02:23:59.941Z,40.33
2023-01-22T02:26:28.451Z,34.67
2023-01-22T02:28:56.868Z,38.00
2023-01-22T02:31:27.228Z,28.00
2023-01-22T02:33:54.471Z,17.00
2023-01-22T02:36:22.445Z,19.33
2023-01-22T02:38:52.088Z,25.33
2023-01-22T02:41:19.090Z,26.33
2023-01-22T02:43:46.405Z,23.33
2023-01-22T02:46:13.868Z,25.33
2023-01-22T02:48:40.924Z,19.33
2023-01-22T02:51:08.483Z,15.67
2023-01-22T02:53:35.461Z,24.00
2023-01-22T02:56:08.917Z,23.00
2023-01-22T02:58:36.933Z,23.67
2023-01-22T03:01:10.147Z,22.67
2023-01-22T03:03:37.480Z,25.33
2023-01-22T03:06:04.876Z,23.67
2023-01-22T03:08:31.953Z,24.67
2023-01-22T03:10:59.090Z,23.33
2023-01-22T03:13:28.768Z,15.67
2023-01-22T03:15:56.734Z,22.67
2023-01-22T03:18:23.573Z,22.67
2023-01-22T03:20:51.935Z,8.00
2023-01-22T03:23:18.984Z,10.00
2023-01-22T03:25:48.332Z,15.00
2023-01-22T03:28:15.215Z,12.67
2023-01-22T03:30:43.514Z,15.50
2023-01-22T03:33:10.434Z,12.75
2023-01-22T03:35:38.007Z,18.50
2023-01-22T03:38:12.733Z,16.50
2023-01-22T03:40:40.220Z,17.75
2023-01-22T03:43:07.554Z,15.00
2023-01-22T03:45:35.602Z,16.67
2023-01-22T03:48:05.928Z,15.00
2023-01-22T03:50:37.777Z,17.00
2023-01-22T03:53:05.777Z,15.00
2023-01-22T03:55:33.598Z,18.00
2023-01-22T03:58:00.444Z,18.00
2023-01-22T04:00:27.617Z,19.33
2023-01-22T04:02:54.585Z,20.33
2023-01-22T04:05:27.995Z,21.00
2023-01-22T04:07:54.790Z,15.75
2023-01-22T04:10:25.867Z,16.00
2023-01-22T04:12:52.972Z,19.33
2023-01-22T04:15:22.267Z,21.00
2023-01-22T04:17:50.458Z,17.00
2023-01-22T04:20:42.811Z,17.25
2023-01-22T04:23:44.887Z,15.00
2023-01-22T04:26:12.315Z,15.33
2023-01-22T04:28:39.068Z,15.00
2023-01-22T04:31:06.381Z,15.33
2023-01-22T04:33:53.563Z,22.67
2023-01-22T04:36:29.106Z,20.67
2023-01-22T04:38:56.180Z,24.00
2023-01-22T04:41:23.245Z,22.00
2023-01-22T04:43:50.097Z,27.33
2023-01-22T04:46:17.604Z,21.33
2023-01-22T04:48:44.508Z,13.00
2023-01-22T04:51:11.422Z,24.33
2023-01-22T04:53:39.641Z,8.67
2023-01-22T04:56:07.926Z,18.00
2023-01-22T04:58:34.964Z,15.67
2023-01-22T05:01:01.976Z,10.67
2023-01-22T05:03:28.994Z,16.00
2023-01-22T05:05:56.531Z,13.00
2023-01-22T05:08:23.344Z,14.67
2023-01-22T05:10:52.332Z,15.33
2023-01-22T05:13:28.885Z,15.67
2023-01-22T05:15:55.923Z,15.67
2023-01-22T05:18:24.736Z,15.25
2023-01-22T05:20:52.522Z,22.00
2023-01-22T05:23:21.616Z,18.00
2023-01-22T05:25:49.421Z,16.00
2023-01-22T05:28:22.204Z,16.33
2023-01-22T05:31:08.106Z,16.33
2023-01-22T05:33:42.113Z,17.33
2023-01-22T05:36:11.855Z,19.00
2023-01-22T05:38:39.278Z,24.00
2023-01-22T05:41:06.533Z,18.67
2023-01-22T05:43:39.541Z,15.67
2023-01-22T05:46:09.517Z,13.00
2023-01-22T05:48:56.710Z,16.00
2023-01-22T05:51:26.191Z,17.33
2023-01-22T05:53:53.827Z,14.67
2023-01-22T05:56:20.791Z,18.33
2023-01-22T05:58:49.513Z,17.33
2023-01-22T06:01:17.204Z,14.00
2023-01-22T06:03:47.913Z,19.33
2023-01-22T06:06:19.473Z,16.33
2023-01-22T06:08:48.235Z,17.67
2023-01-22T06:11:17.387Z,23.75
2023-01-22T06:13:46.248Z,23.33
2023-01-22T06:16:24.305Z,21.25
2023-01-22T06:19:10.490Z,21.75
2023-01-22T06:21:47.579Z,20.67
2023-01-22T06:24:14.668Z,21.00
2023-01-22T06:26:41.634Z,25.00
2023-01-22T06:29:11.262Z,13.67
2023-01-22T06:31:40.524Z,28.33
2023-01-22T06:34:09.306Z,29.67
2023-01-22T06:36:36.439Z,30.67
2023-01-22T06:39:05.169Z,29.33
2023-01-22T06:41:39.641Z,33.33
2023-01-22T06:44:10.276Z,32.00
2023-01-22T06:46:37.707Z,33.00
2023-01-22T06:49:11.201Z,36.67
2023-01-22T06:51:39.900Z,35.00
2023-01-22T06:54:07.409Z,35.67
2023-01-22T06:56:34.278Z,38.00
2023-01-22T06:59:03.432Z,30.67
2023-01-22T07:01:30.499Z,31.00
2023-01-22T07:03:57.348Z,26.33
2023-01-22T07:06:25.596Z,32.67
2023-01-22T07:08:52.397Z,29.33
2023-01-22T07:11:19.459Z,25.67
2023-01-22T07:13:46.319Z,27.67
2023-01-22T07:16:13.351Z,22.00
2023-01-22T07:18:40.371Z,21.33
2023-01-22T07:21:07.311Z,27.67
2023-01-22T07:23:35.584Z,34.33
2023-01-22T07:26:02.486Z,28.67
2023-01-22T07:28:29.249Z,27.00
2023-01-22T07:30:56.100Z,28.67
2023-01-22T07:33:23.094Z,23.33
2023-01-22T07:35:55.036Z,26.00
2023-01-22T07:38:22.365Z,22.50
2023-01-22T07:40:50.465Z,21.50
2023-01-22T07:43:17.337Z,27.50
2023-01-22T07:45:44.427Z,21.50
2023-01-22T07:48:11.869Z,24.50
2023-01-22T07:50:38.995Z,23.50
2023-01-22T07:53:06.675Z,23.25
2023-01-22T07:55:33.704Z,22.75
2023-01-22T07:58:05.548Z,23.50
2023-01-22T08:00:35.397Z,23.25
2023-01-22T08:03:04.909Z,22.25
2023-01-22T08:05:31.831Z,20.00
2023-01-22T08:07:58.985Z,21.25
2023-01-22T08:10:25.904Z,20.25
2023-01-22T08:12:52.728Z,22.50
2023-01-22T08:15:21.038Z,23.00
2023-01-22T08:17:49.650Z,18.00
2023-01-22T08:20:18.313Z,19.75
2023-01-22T08:22:45.387Z,15.50
2023-01-22T08:25:12.714Z,19.75
2023-01-22T08:27:39.601Z,17.50
2023-01-22T08:30:08.767Z,19.75
2023-01-22T08:32:37.891Z,19.50
2023-01-22T08:35:06.003Z,21.25
2023-01-22T08:37:32.771Z,21.75
2023-01-22T08:39:59.531Z,15.75
2023-01-22T08:42:26.437Z,19.25
2023-01-22T08:44:53.461Z,19.75
2023-01-22T08:47:20.246Z,17.75
2023-01-22T08:49:48.433Z,20.75
2023-01-22T08:52:15.701Z,17.25
2023-01-22T08:54:42.613Z,13.75
2023-01-22T08:57:09.546Z,20.75
2023-01-22T08:59:36.365Z,22.00
2023-01-22T09:02:03.591Z,18.50
2023-01-22T09:04:30.604Z,17.00
2023-01-22T09:06:58.737Z,16.00
2023-01-22T09:09:25.707Z,19.25
2023-01-22T09:11:52.483Z,12.75
2023-01-22T09:14:19.399Z,17.25
2023-01-22T09:16:46.316Z,20.25
2023-01-22T09:19:13.368Z,14.50
2023-01-22T09:21:40.363Z,20.00
2023-01-22T09:24:09.385Z,17.75
2023-01-22T09:26:36.955Z,18.75
2023-01-22T09:29:05.452Z,40.33
2023-01-22T09:31:32.380Z,24.00
2023-01-22T09:33:59.802Z,16.00
2023-01-22T09:36:27.175Z,18.25
2023-01-22T09:38:54.505Z,21.25
2023-01-22T09:41:29.889Z,18.00
2023-01-22T09:44:05.177Z,17.50
2023-01-22T09:46:43.016Z,15.25
2023-01-22T09:49:15.838Z,16.25
2023-01-22T09:51:46.948Z,17.25
2023-01-22T09:54:15.001Z,14.75
2023-01-22T09:56:47.038Z,13.50
2023-01-22T09:59:18.572Z,13.75
2023-01-22T10:01:52.465Z,15.50
2023-01-22T10:04:33.895Z,11.00
2023-01-22T10:07:04.193Z,14.75
2023-01-22T10:09:33.772Z,12.25
2023-01-22T10:12:11.882Z,14.00
2023-01-22T10:14:39.318Z,16.75
2023-01-22T10:17:21.457Z,13.75
2023-01-22T10:19:55.352Z,14.25
2023-01-22T10:22:24.957Z,13.00
2023-01-22T10:24:53.158Z,13.25
2023-01-22T10:27:32.081Z,13.00
2023-01-22T10:30:07.082Z,13.25
2023-01-22T10:32:34.128Z,6.25
2023-01-22T10:35:05.706Z,13.50
2023-01-22T10:37:44.943Z,12.50
2023-01-22T10:40:24.504Z,12.75
2023-01-22T10:43:06.032Z,11.50
2023-01-22T10:45:33.129Z,10.75
2023-01-22T10:48:05.788Z,17.00
2023-01-22T10:50:32.949Z,12.50
2023-01-22T10:52:59.803Z,11.25
2023-01-22T10:55:31.663Z,13.00
2023-01-22T10:58:06.543Z,15.25
2023-01-22T11:00:50.504Z,8.25
2023-01-22T11:03:22.097Z,13.25
2023-01-22T11:05:58.424Z,13.25
2023-01-22T11:08:38.518Z,13.50
2023-01-22T11:11:10.835Z,12.75
2023-01-22T11:13:50.680Z,13.50
2023-01-22T11:16:20.431Z,12.25
2023-01-22T11:18:55.844Z,13.25
2023-01-22T11:21:29.872Z,13.00
2023-01-22T11:24:08.672Z,11.00
2023-01-22T11:26:55.021Z,9.00
2023-01-22T11:29:50.611Z,10.25
2023-01-22T11:32:46.376Z,8.75
2023-01-22T11:35:25.350Z,9.00
2023-01-22T11:38:17.977Z,6.75
2023-01-22T11:41:05.329Z,9.00
2023-01-22T11:43:55.244Z,8.25
2023-01-22T11:46:51.616Z,10.50
2023-01-22T11:49:35.353Z,8.75
2023-01-22T11:52:22.060Z,8.00
2023-01-22T11:55:22.206Z,8.50
2023-01-22T11:58:08.594Z,7.50
2023-01-22T12:00:51.824Z,9.00
2023-01-22T12:04:00.191Z,8.25
2023-01-22T12:06:56.919Z,8.00
2023-01-22T12:09:34.909Z,5.25
2023-01-22T12:12:19.974Z,7.00
2023-01-22T12:15:04.616Z,9.00
2023-01-22T12:17:51.017Z,12.75
2023-01-22T12:20:52.289Z,15.50
2023-01-22T12:23:30.737Z,10.25
2023-01-22T12:26:04.425Z,8.25
2023-01-22T12:28:41.802Z,7.25
2023-01-22T12:31:19.327Z,9.75
2023-01-22T12:33:46.308Z,8.50
2023-01-22T12:36:21.585Z,8.75
2023-01-22T12:38:57.284Z,9.00
2023-01-22T12:41:46.306Z,8.75
2023-01-22T12:44:31.020Z,9.25
2023-01-22T12:47:13.022Z,9.75
2023-01-22T12:49:48.762Z,8.00
2023-01-22T12:52:35.640Z,8.00
2023-01-22T12:55:21.951Z,9.00
2023-01-22T12:57:49.161Z,8.25
2023-01-22T13:00:33.006Z,9.00
2023-01-22T13:03:01.369Z,8.00
2023-01-22T13:05:41.393Z,7.00
2023-01-22T13:08:27.876Z,7.25
2023-01-22T13:10:58.678Z,8.50
2023-01-22T13:13:31.950Z,12.75
2023-01-22T13:16:05.159Z,8.50
2023-01-22T13:18:41.488Z,7.00
2023-01-22T13:21:12.091Z,4.75
2023-01-22T13:23:45.897Z,5.00
2023-01-22T13:26:19.270Z,5.75
2023-01-22T13:28:53.411Z,6.50
2023-01-22T13:31:20.455Z,7.00
2023-01-22T13:34:00.019Z,6.75
2023-01-22T13:36:28.023Z,6.00
2023-01-22T13:38:59.143Z,4.50
2023-01-22T13:41:30.905Z,6.00
2023-01-22T13:43:59.190Z,4.50
2023-01-22T13:46:27.890Z,8.00
2023-01-22T13:49:11.715Z,6.00
2023-01-22T13:51:40.442Z,10.00
2023-01-22T13:54:21.807Z,7.50
2023-01-22T13:56:48.912Z,7.00
2023-01-22T13:59:21.243Z,6.75
2023-01-22T14:01:49.439Z,9.00
2023-01-22T14:04:35.291Z,8.00
2023-01-22T14:07:03.496Z,7.75
2023-01-22T14:09:35.544Z,7.00
2023-01-22T14:12:15.455Z,8.00
2023-01-22T14:14:42.774Z,7.75
2023-01-22T14:17:22.630Z,9.00
2023-01-22T14:19:50.502Z,8.25
2023-01-22T14:22:17.960Z,9.00
2023-01-22T14:24:46.099Z,7.25
2023-01-22T14:27:13.284Z,8.50
2023-01-22T14:29:40.397Z,7.75
2023-01-22T14:32:07.167Z,7.75
2023-01-22T14:34:33.997Z,8.00
2023-01-22T14:37:00.841Z,7.00
2023-01-22T14:39:32.204Z,6.00
2023-01-22T14:42:01.549Z,9.00
2023-01-22T14:44:28.465Z,9.00
2023-01-22T14:46:55.386Z,8.00
2023-01-22T14:49:22.381Z,9.75
2023-01-22T14:51:52.055Z,11.50
2023-01-22T14:54:19.399Z,10.00
2023-01-22T14:56:46.278Z,9.50
2023-01-22T14:59:14.489Z,8.00
2023-01-22T15:01:41.390Z,9.00
2023-01-22T15:04:08.268Z,7.25
2023-01-22T15:06:35.310Z,9.00
2023-01-22T15:09:02.117Z,7.00
2023-01-22T15:11:29.047Z,8.75
2023-01-22T15:13:55.950Z,5.25
2023-01-22T15:16:24.317Z,12.50
2023-01-22T15:18:54.891Z,8.00
2023-01-22T15:21:22.376Z,11.00
2023-01-22T15:23:49.172Z,8.00
2023-01-22T15:26:26.563Z,7.00
2023-01-22T15:28:54.987Z,7.25
2023-01-22T15:31:21.996Z,12.50
2023-01-22T15:33:50.609Z,11.00
2023-01-22T15:36:17.552Z,8.00
2023-01-22T15:38:44.333Z,3.00
2023-01-22T15:41:20.268Z,8.25
2023-01-22T15:43:51.275Z,8.25
2023-01-22T15:46:19.997Z,10.00
2023-01-22T15:48:47.564Z,16.75
2023-01-22T15:51:16.556Z,9.00
2023-01-22T15:53:48.946Z,8.00
2023-01-22T15:56:16.347Z,8.50
2023-01-22T15:58:44.259Z,8.00
2023-01-22T16:01:11.519Z,8.00
2023-01-22T16:03:38.574Z,8.50
2023-01-22T16:06:10.844Z,8.00
2023-01-22T16:08:40.319Z,9.00
2023-01-22T16:11:08.445Z,11.25
2023-01-22T16:13:35.973Z,10.75
2023-01-22T16:16:06.720Z,11.00
2023-01-22T16:18:35.440Z,7.50
2023-01-22T16:21:03.440Z,10.50
2023-01-22T16:23:31.867Z,8.00
2023-01-22T16:26:04.170Z,6.00
2023-01-22T16:28:31.421Z,8.25
2023-01-22T16:31:03.598Z,9.25
2023-01-22T16:33:34.299Z,8.00
2023-01-22T16:36:03.880Z,8.75
2023-01-22T16:38:31.869Z,8.25
2023-01-22T16:41:27.581Z,8.25
2023-01-22T16:43:58.981Z,9.00
2023-01-22T16:46:29.333Z,9.00
2023-01-22T16:48:59.831Z,8.00
2023-01-22T16:51:32.617Z,9.50
2023-01-22T16:53:59.454Z,8.75
2023-01-22T16:56:27.728Z,7.50
2023-01-22T16:58:54.757Z,5.50
2023-01-22T17:01:21.915Z,9.00
2023-01-22T17:03:48.782Z,8.00
2023-01-22T17:06:26.844Z,7.50
2023-01-22T17:08:54.725Z,8.00
2023-01-22T17:11:22.344Z,8.50
2023-01-22T17:13:50.695Z,8.00
2023-01-22T17:16:18.751Z,10.00
2023-01-22T17:18:46.555Z,10.00
2023-01-22T17:21:18.898Z,11.25
2023-01-22T17:23:46.069Z,10.25
2023-01-22T17:26:17.007Z,8.00
2023-01-22T17:28:44.389Z,8.25
2023-01-22T17:31:15.681Z,8.25
2023-01-22T17:33:43.610Z,8.75
2023-01-22T17:36:13.151Z,5.50
2023-01-22T17:38:40.364Z,9.50
2023-01-22T17:41:10.601Z,8.75
2023-01-22T17:43:38.175Z,7.75
2023-01-22T17:46:10.576Z,9.75
2023-01-22T17:48:39.981Z,9.00
2023-01-22T17:51:09.425Z,9.00
2023-01-22T17:53:38.692Z,8.75
2023-01-22T17:56:13.906Z,12.50
2023-01-22T17:58:42.983Z,14.50
2023-01-22T18:01:12.723Z,11.75
2023-01-22T18:03:41.707Z,10.75
2023-01-22T18:06:09.673Z,9.50
2023-01-22T18:08:37.622Z,10.50
2023-01-22T18:11:09.949Z,11.25
2023-01-22T18:13:38.547Z,11.00
2023-01-22T18:16:07.961Z,15.00
2023-01-22T18:18:35.753Z,12.00
2023-01-22T18:21:05.847Z,12.75
2023-01-22T18:23:32.931Z,10.00
2023-01-22T18:26:05.069Z,11.50
2023-01-22T18:28:33.349Z,10.50
2023-01-22T18:31:05.374Z,13.00
2023-01-22T18:33:32.728Z,15.25
2023-01-22T18:36:00.497Z,13.75
2023-01-22T18:38:29.112Z,13.75
2023-01-22T18:40:55.927Z,13.25
2023-01-22T18:43:23.206Z,12.75
2023-01-22T18:45:50.056Z,13.75
2023-01-22T18:48:17.065Z,12.25
2023-01-22T18:50:51.593Z,12.00
2023-01-22T18:53:19.287Z,15.00
2023-01-22T18:55:47.851Z,14.00
2023-01-22T18:58:14.782Z,12.00
2023-01-22T19:00:41.704Z,11.00
2023-01-22T19:03:08.859Z,13.50
2023-01-22T19:05:39.608Z,14.00
2023-01-22T19:08:06.698Z,16.00
2023-01-22T19:10:33.531Z,14.00
2023-01-22T19:13:01.999Z,9.75
2023-01-22T19:15:29.126Z,13.75
2023-01-22T19:17:55.955Z,16.75
2023-01-22T19:20:22.847Z,18.00
2023-01-22T19:22:49.699Z,12.50
2023-01-22T19:25:17.257Z,15.00
2023-01-22T19:27:44.357Z,14.75
2023-01-22T19:30:13.223Z,15.50
2023-01-22T19:32:40.115Z,11.75
2023-01-22T19:35:08.056Z,9.25
2023-01-22T19:37:35.102Z,12.25
2023-01-22T19:40:18.915Z,11.50
2023-01-22T19:42:45.844Z,13.50
2023-01-22T19:45:14.471Z,11.75
2023-01-22T19:47:41.369Z,15.75
2023-01-22T19:50:09.887Z,15.50
2023-01-22T19:52:36.824Z,15.75
2023-01-22T19:55:04.227Z,15.25
2023-01-22T19:57:31.357Z,13.50
2023-01-22T19:59:58.215Z,10.00
2023-01-22T20:02:27.255Z,13.00
2023-01-22T20:04:54.160Z,11.00
2023-01-22T20:07:21.090Z,9.50
2023-01-22T20:09:49.039Z,11.75
2023-01-22T20:12:16.066Z,13.00
2023-01-22T20:14:42.888Z,14.75
2023-01-22T20:17:10.380Z,13.25
2023-01-22T20:19:38.852Z,12.25
2023-01-22T20:22:06.081Z,13.50
2023-01-22T20:24:33.926Z,15.00
2023-01-22T20:27:00.769Z,13.00
2023-01-22T20:29:27.769Z,15.00
2023-01-22T20:31:55.930Z,17.25
2023-01-22T20:34:23.183Z,22.00
2023-01-22T20:36:51.752Z,16.00
2023-01-22T20:39:18.892Z,14.50
2023-01-22T20:41:46.111Z,13.50
2023-01-22T20:44:14.103Z,10.75
2023-01-22T20:46:41.035Z,14.75
2023-01-22T20:49:08.410Z,12.50
2023-01-22T20:51:35.672Z,12.75
2023-01-22T20:54:04.425Z,14.75
2023-01-22T20:56:33.773Z,14.50
2023-01-22T20:59:03.086Z,15.25
2023-01-22T21:01:30.789Z,14.25
2023-01-22T21:03:59.851Z,14.00
2023-01-22T21:06:29.404Z,14.00
2023-01-22T21:08:57.944Z,15.75
2023-01-22T21:11:29.128Z,15.25
2023-01-22T21:13:58.226Z,13.50
2023-01-22T21:16:27.747Z,13.00
2023-01-22T21:18:59.401Z,14.50
2023-01-22T21:21:28.193Z,11.25
2023-01-22T21:23:56.478Z,14.25
2023-01-22T21:26:27.810Z,12.25
2023-01-22T21:28:57.422Z,13.25
2023-01-22T21:31:25.357Z,15.00
2023-01-22T21:33:53.291Z,13.75
2023-01-22T21:36:20.189Z,14.75
2023-01-22T21:38:47.894Z,13.25
2023-01-22T21:41:18.356Z,15.50
2023-01-22T21:43:47.672Z,14.25
2023-01-22T21:46:16.022Z,12.50
2023-01-22T21:48:42.942Z,17.00
2023-01-22T21:51:09.831Z,14.75
2023-01-22T21:53:36.927Z,14.75
2023-01-22T21:56:04.535Z,12.00
2023-01-22T21:58:31.509Z,14.00
2023-01-22T22:01:05.145Z,12.50
2023-01-22T22:03:31.977Z,14.25
2023-01-22T22:06:01.225Z,14.00
2023-01-22T22:08:29.384Z,14.00
2023-01-22T22:10:56.743Z,15.75
2023-01-22T22:13:24.088Z,16.00
2023-01-22T22:15:50.937Z,13.75
2023-01-22T22:18:19.081Z,15.00
2023-01-22T22:20:46.034Z,14.50
2023-01-22T22:23:13.303Z,17.25
2023-01-22T22:25:40.101Z,14.25
2023-01-22T22:28:06.873Z,12.50
2023-01-22T22:30:34.801Z,16.00
2023-01-22T22:33:01.559Z,15.00
2023-01-22T22:35:30.259Z,15.25
2023-01-22T22:37:57.307Z,13.00
2023-01-22T22:40:24.187Z,15.50
2023-01-22T22:42:50.977Z,14.75
2023-01-22T22:45:18.127Z,15.00
2023-01-22T22:47:45.011Z,17.25
2023-01-22T22:50:11.908Z,16.50
2023-01-22T22:52:40.315Z,14.75
2023-01-22T22:55:08.210Z,17.00
2023-01-22T22:57:35.041Z,15.25
2023-01-22T23:00:01.888Z,16.00
2023-01-22T23:02:28.723Z,12.00
2023-01-22T23:04:55.606Z,13.25
2023-01-22T23:07:22.401Z,20.75
2023-01-22T23:09:50.894Z,18.75
2023-01-22T23:12:17.701Z,17.00
2023-01-22T23:14:44.495Z,16.50
2023-01-22T23:17:11.404Z,17.00
2023-01-22T23:19:38.352Z,19.50
2023-01-22T23:22:05.474Z,17.75
2023-01-22T23:24:32.244Z,16.75
2023-01-22T23:27:00.678Z,19.75
2023-01-22T23:29:28.155Z,20.00
2023-01-22T23:31:55.245Z,16.50
2023-01-22T23:34:23.316Z,18.75
2023-01-22T23:36:51.006Z,16.25
2023-01-22T23:39:20.838Z,16.50
2023-01-22T23:41:47.994Z,16.00
2023-01-22T23:44:16.418Z,19.25
2023-01-22T23:46:43.850Z,19.50
2023-01-22T23:49:10.750Z,16.75
2023-01-22T23:51:38.000Z,16.50
2023-01-22T23:54:05.198Z,9.50
2023-01-22T23:56:32.197Z,16.50
2023-01-22T23:58:59.953Z,17.00
